Weather observations for the past three days for
Frederick Municipal Airport
Imperial (Metric)
Date Time (edt) Wind (mph) Vis. (mi.) Weather Sky Cond. Temperature (ºF) Relative Humidity Wind Chill (°F) Heat Index (°F) Pressure Precipitation (in)
Air Dwpt 6 hour altimeter (in) sea level (mb) 1 hr 3 hr 6 hr
Max. Min.
09 19:47 N 6 10.00 Fair CLR 68 51.8 56% 29.8 0.0
09 18:47 N 6 10.00 Fair CLR 68 51.8 56% 29.8 0.0
09 17:47 NE 8 10.00 Partly Cloudy SCT110 69.8 51.8 53% 29.8 0.0
09 16:47 Calm 10.00 Fair CLR 68 46.4 46% 29.81 0.0
09 15:47 Calm 10.00 Fair CLR 68 46.4 46% 29.81 0.0
09 14:47 Calm 10.00 Fair CLR 68 46.4 46% 29.82 0.0
09 13:47 Calm 10.00 A Few Clouds FEW085 64.4 46.4 52% 29.86 0.0
09 12:47 Vrbl 5 10.00 Overcast OVC120 64.4 48.2 56% 29.87 0.0
09 11:47 Calm 10.00 Overcast OVC085 64.4 46.4 52% 29.88 0.0
09 10:47 Calm 10.00 Partly Cloudy SCT090 60.8 46.4 59% 29.89 0.0
09 09:47 Calm 10.00 Partly Cloudy SCT090 60.8 44.6 55% 29.88 0.0
09 08:47 Calm 10.00 Mostly Cloudy BKN120 59 46.4 63% 29.88 0.0
09 07:47 Calm 10.00 Mostly Cloudy BKN120 55.4 48.2 77% 29.88 0.0
09 06:47 Calm 10.00 Mostly Cloudy BKN120 53.6 48.2 82% 29.86 0.0
09 06:15 Calm 10.00 Partly Cloudy SCT100 SCT170 52.7 47.7 83% 29.86 0.0
09 05:55 Calm 10.00 Mostly Cloudy BKN110 52.7 46.8 80% 29.86 0.0
09 05:35 Calm 10.00 Overcast OVC110 53.1 47.3 81% 29.86 0.0
09 05:15 Calm 10.00 Overcast OVC110 52.7 47.3 82% 29.87 0.0
09 04:55 Calm 10.00 Overcast OVC110 54.1 45.9 74% 29.87 0.0
09 04:35 Calm 10.00 Overcast OVC110 55 43.7 66% 29.87 0.0
09 03:55 Calm 10.00 Overcast OVC110 51.6 48 88% 29.87 0.0
09 03:35 Calm 10.00 Overcast OVC110 52.2 47.1 83% 29.87 0.0
09 03:15 Calm 10.00 Overcast OVC120 50.9 48.2 91% 29.87 0.0
09 02:55 Calm 7.00 Overcast OVC120 51.3 46.9 85% 29.88 0.0
09 02:35 Calm 10.00 Overcast OVC120 49.8 47.1 91% 29.88 0.0
09 02:15 Calm 10.00 Overcast OVC130 49.3 47.8 95% 29.89 0.0
09 01:55 Calm 10.00 Overcast OVC130 50.2 47.3 65.1 46.9 90% 29.89 0.0
09 01:35 Calm 10.00 Overcast OVC140 49.3 46.9 92% 29.88 0.0
09 01:15 Calm 10.00 Partly Cloudy SCT130 47.3 46.8 98% 29.89 0.0
09 00:55 Calm 10.00 A Few Clouds FEW120 47.5 45.9 94% 29.9 0.0
09 00:35 Calm 10.00 Partly Cloudy SCT120 48.7 46.9 94% 29.9 0.0
09 00:15 Calm 10.00 Fair CLR 49.5 46.4 89% 29.9 0.0
08 23:55 Calm 10.00 Fair CLR 50.9 46 84% 29.9 0.0
08 23:35 S 3 10.00 Fair CLR 50.4 46.6 87% 29.9 0.0
08 23:15 Calm 10.00 Fair CLR 50.7 46.6 86% 29.9 0.0
08 22:55 Calm 10.00 Fair CLR 53.2 45.7 76% 29.91 0.0
08 22:35 Calm 10.00 A Few Clouds FEW130 56.1 42.8 61% 29.91 0.0
08 22:15 Calm 10.00 Mostly Cloudy BKN120 56.1 45 66% 29.9 0.0
08 21:55 Calm 10.00 Overcast OVC110 58.8 44.1 58% 29.9 0.0
08 21:35 Calm 10.00 Mostly Cloudy BKN110 57.4 46.2 67% 29.9 0.0
08 20:47 W 5 10.00 Mostly Cloudy BKN090 71.6 33.8 25% 29.89 0.0
08 19:47 W 5 10.00 Mostly Cloudy BKN090 71.6 33.8 25% 29.89 0.0
08 17:47 W 14 G 22 10.00 Mostly Cloudy BKN090 71.6 33.8 25% 29.88 0.0
08 16:47 W 14 G 22 10.00 Mostly Cloudy BKN090 71.6 33.8 25% 29.88 0.0
08 15:47 W 14 G 22 10.00 Mostly Cloudy BKN090 71.6 33.8 25% 29.89 0.0
08 14:47 W 14 G 22 10.00 Mostly Cloudy BKN090 68 33.8 28% 29.92 0.0
08 13:47 W 14 G 22 10.00 Mostly Cloudy BKN090 68 33.8 28% 29.93 0.0
08 12:47 SW 18 10.00 Mostly Cloudy BKN085 66.2 33.8 30% 29.95 0.0
08 11:47 W 12 G 18 10.00 A Few Clouds FEW070 66.2 37.4 35% 29.97 0.0
08 10:47 SW 12 G 17 10.00 A Few Clouds FEW100 62.6 35.6 37% 29.99 0.0
08 09:47 SW 9 10.00 Fair CLR 59 33.8 39% 30 0.0
08 07:47 Calm 10.00 Fair CLR 50 41 71% 30.01 0.0
08 06:47 S 6 10.00 Fair CLR 44.6 39.2 81% 42 29.99 0.0
08 06:15 SE 3 8.00 Fair CLR 42.1 37.9 85% 29.98 0.0
08 05:55 S 5 8.00 Fair CLR 40.8 39 93% 38 29.97 0.0
08 05:35 Calm 9.00 Fair CLR 40.8 38.8 93% 29.97 0.0
08 05:15 Calm 8.00 Fair CLR 41 39 93% 29.97 0.0
08 04:55 Calm 9.00 Fair CLR 41.9 38.8 89% 29.96 0.0
08 04:35 Calm 9.00 Fair CLR 44.2 36.3 74% 29.96 0.0
08 04:15 W 6 9.00 Fair CLR 45.9 34.3 64% 43 29.96 0.0
08 03:35 NW 6 9.00 Fair CLR 46.4 35.8 67% 44 29.95 0.0
08 03:15 NW 7 9.00 Fair CLR 49.1 35.8 60% 47 29.94 0.0
08 02:55 NW 7 9.00 Fair CLR 50.5 35.6 57% 29.94 0.0
08 02:35 Vrbl 6 9.00 Fair CLR 50.2 35.6 57% 29.94 0.0
08 02:15 N 7 9.00 Fair CLR 50 36 59% 48 29.94 0.0
08 01:55 Calm 9.00 Fair CLR 47.3 41.9 63.3 46.6 82% 29.93 0.0
08 01:35 Calm 9.00 Fair CLR 46.8 40.5 79% 29.92 0.0
08 01:15 Calm 9.00 Fair CLR 47.3 43.5 87% 29.92 0.0
08 00:55 Calm 9.00 Fair CLR 48 45.1 90% 29.91 0.0
08 00:35 Calm 9.00 Fair CLR 48.6 45.1 88% 29.9 0.0
08 00:15 Calm 9.00 Fair CLR 50 45.7 85% 29.89 0.0
07 23:55 S 3 10.00 Fair CLR 51.3 46.9 85% 29.88 0.0
07 23:35 Calm 9.00 Fair CLR 51.1 46.9 86% 29.88 0.0
07 22:55 S 6 9.00 Fair CLR 55.2 46.2 72% 29.87 0.0
07 22:35 Calm 10.00 A Few Clouds FEW095 55.6 46.2 71% 29.87 0.0
07 22:15 S 3 10.00 Mostly Cloudy BKN095 56.5 46.4 69% 29.86 0.0
07 21:55 S 6 10.00 A Few Clouds FEW090 57.6 46.2 66% 29.86 0.0
07 21:35 S 5 10.00 Partly Cloudy SCT090 58.6 46.6 64% 29.85 0.0
07 21:15 SW 12 10.00 Overcast OVC085 60.8 45.5 57% 29.85 0.0
07 20:45 SW 5 10.00 Mostly Cloudy BKN085 60.8 42.8 52% 29.83 0.0
07 19:47 Calm 10.00 Mostly Cloudy BKN090 62.6 42.8 49% 29.81 0.0
07 18:47 Vrbl 3 10.00 Partly Cloudy SCT090 62.6 39.2 42% 29.78 0.0
07 17:47 Vrbl 3 10.00 A Few Clouds FEW080 66.2 33.8 30% 29.78 0.0
07 16:47 Vrbl 3 10.00 Fair CLR 66.2 35.6 32% 29.79 0.0
07 15:47 Vrbl 5 10.00 Fair CLR 62.6 35.6 37% 29.8 0.0
07 14:47 Vrbl 5 10.00 Fair CLR 62.6 35.6 37% 29.83 0.0
07 13:47 Vrbl 5 10.00 Fair CLR 62.6 35.6 37% 29.85 0.0
07 12:47 Vrbl 5 10.00 Fair CLR 62.6 35.6 37% 29.87 0.0
07 11:47 Vrbl 5 10.00 Fair CLR 60.8 35.6 39% 29.89 0.0
07 10:47 Vrbl 5 10.00 Overcast OVC060 59 35.6 42% 29.92 0.0
07 09:47 Vrbl 5 10.00 Overcast OVC060 55.4 35.6 47% 29.94 0.0
07 08:47 Vrbl 5 10.00 Overcast OVC060 53.6 37.4 54% 29.94 0.0
07 07:47 Calm 10.00 Overcast OVC060 53.6 35.6 51% 29.93 0.0
07 06:47 Calm 10.00 Overcast OVC055 53.6 37.4 54% 29.93 0.0
07 06:15 Calm 9.00 Light Rain OVC055 53.6 37.4 54% 29.91 0.0
07 05:55 N 5 9.00 Light Rain OVC055 53.6 36.7 53% 29.9 0.0
07 05:35 N 7 9.00 Light Rain OVC055 54 37 53% 29.9 0.0
07 05:15 Vrbl 6 10.00 Overcast OVC055 54.3 40.1 59% 29.9 0.0
07 04:55 NW 6 10.00 Overcast OVC055 54.9 44.4 68% 29.9 0.0
07 04:35 N 6 10.00 Overcast OVC055 55 44.8 69% 29.9 0.0
07 04:15 NW 5 10.00 Overcast OVC050 55.2 45.5 70% 29.89 0.0
07 03:55 N 8 10.00 Overcast OVC048 55.4 45.5 70% 29.87 0.0
07 03:35 NW 8 10.00 Overcast OVC048 55.6 45.5 69% 29.88 0.0
07 03:15 N 8 10.00 Overcast OVC046 55.8 45.7 69% 29.87 0.0
07 02:55 NW 12 10.00 Overcast OVC043 56.3 45.1 66% 29.89 0.0
07 02:35 N 9 10.00 Overcast OVC041 56.5 46.8 70% 29.89 0.0
07 02:15 N 6 10.00 Overcast OVC041 56.5 48.9 76% 29.89 0.0
07 01:55 N 6 10.00 Overcast OVC042 57 49.1 65.5 56.8 75% 29.88 0.0
07 01:35 N 9 10.00 Overcast OVC042 57.2 48.9 74% 29.88 0.0
07 01:15 N 6 10.00 Overcast OVC041 57.2 49.8 77% 29.88 0.0
07 00:35 Calm 10.00 Overcast FEW026 BKN036 OVC055 57.7 51.1 79% 29.88 0.0
07 00:15 NW 10 10.00 Overcast SCT027 OVC055 57.9 51.8 80% 29.88 0.0
06 23:55 N 7 10.00 Overcast BKN028 OVC055 58.5 53.4 83% 29.87 0.0
06 23:35 N 8 10.00 Overcast BKN028 OVC060 59 52.9 80% 29.87 0.0
06 23:15 N 7 10.00 Overcast OVC055 59.2 53.6 82% 29.86 0.0
06 22:55 NW 7 8.00 Light Rain FEW033 OVC055 59.7 53.8 81% 29.86 0.0
06 22:35 NW 7 10.00 Overcast FEW032 OVC050 60.4 54 79% 29.86 0.0
06 21:55 NW 10 10.00 Overcast OVC049 61.3 55.2 80% 29.85 0.0
06 21:35 N 8 9.00 Mostly Cloudy BKN047 61.3 56.7 85% 29.85 0.0
06 21:15 NW 6 9.00 Mostly Cloudy BKN045 BKN070 62.2 57.4 84% 29.84 0.0
06 20:47 Vrbl 6 10.00 Overcast SCT023 OVC044 64.4 59 83% 29.85 0.0
Date Time (edt) Wind (mph) Vis. (mi.) Weather Sky Cond. Air Dwpt Max. Min. Relative Humidity Wind Chill (°F) Heat Index (°F) altimeter (in) sea level (mb) 1 hr 3 hr 6 hr
6 hour
Temperature (ºF) Pressure Precipitation (in)